createdAt,value
2023-08-12T00:00:12.791Z,87.41
2023-08-12T00:02:39.982Z,86.96
2023-08-12T00:05:12.301Z,86.56
2023-08-12T00:07:40.348Z,85.86
2023-08-12T00:10:08.372Z,86.37
2023-08-12T00:12:35.536Z,86.55
2023-08-12T00:15:03.147Z,86.89
2023-08-12T00:17:30.378Z,87.07
2023-08-12T00:19:58.132Z,87.39
2023-08-12T00:22:26.994Z,87.09
2023-08-12T00:24:54.287Z,86.27
2023-08-12T00:27:21.641Z,86.14
2023-08-12T00:29:49.600Z,88.07
2023-08-12T00:32:16.866Z,87.96
2023-08-12T00:34:44.395Z,87.91
2023-08-12T00:37:11.840Z,88.21
2023-08-12T00:39:40.792Z,88.00
2023-08-12T00:42:08.508Z,90.20
2023-08-12T00:44:35.874Z,89.44
2023-08-12T00:47:06.584Z,88.39
2023-08-12T00:49:33.906Z,89.70
2023-08-12T00:52:02.120Z,88.05
2023-08-12T00:54:30.092Z,87.67
2023-08-12T00:57:02.351Z,86.81
2023-08-12T00:59:30.643Z,87.51
2023-08-12T01:01:57.966Z,87.95
2023-08-12T01:04:25.448Z,87.49
2023-08-12T01:06:52.159Z,88.23
2023-08-12T01:09:22.646Z,88.23
2023-08-12T01:11:57.002Z,88.82
2023-08-12T01:14:30.138Z,89.05
2023-08-12T01:17:03.558Z,88.98
2023-08-12T01:19:33.839Z,88.15
2023-08-12T01:22:10.350Z,88.53
2023-08-12T01:24:40.419Z,88.89
2023-08-12T01:27:09.027Z,88.52
2023-08-12T01:29:40.443Z,89.12
2023-08-12T01:32:13.177Z,88.61
2023-08-12T01:34:51.650Z,89.26
2023-08-12T01:37:26.092Z,88.74
2023-08-12T01:39:59.332Z,88.23
2023-08-12T01:42:27.366Z,88.86
2023-08-12T01:44:55.185Z,88.28
2023-08-12T01:47:23.253Z,88.58
2023-08-12T01:49:51.252Z,88.98
2023-08-12T01:52:18.417Z,88.66
2023-08-12T01:54:45.858Z,89.73
2023-08-12T01:57:15.125Z,89.20
2023-08-12T01:59:44.606Z,88.47
2023-08-12T02:02:12.214Z,88.73
2023-08-12T02:04:40.698Z,88.50
2023-08-12T02:07:08.052Z,89.39
2023-08-12T02:09:35.953Z,89.83
2023-08-12T02:12:02.861Z,89.77
2023-08-12T02:14:34.276Z,90.43
2023-08-12T02:17:01.701Z,89.97
2023-08-12T02:19:29.152Z,90.08
2023-08-12T02:21:56.412Z,89.57
2023-08-12T02:24:23.948Z,88.91
2023-08-12T02:26:51.105Z,89.53
2023-08-12T02:29:18.341Z,89.94
2023-08-12T02:31:47.436Z,90.50
2023-08-12T02:34:17.660Z,90.47
2023-08-12T02:36:45.112Z,90.75
2023-08-12T02:39:12.742Z,91.38
2023-08-12T02:41:40.028Z,90.81
2023-08-12T02:44:07.578Z,90.05
2023-08-12T02:46:34.903Z,90.95
2023-08-12T02:49:06.909Z,90.70
2023-08-12T02:51:34.553Z,90.33
2023-08-12T02:54:01.826Z,90.67
2023-08-12T02:56:29.203Z,90.89
2023-08-12T02:58:56.404Z,90.46
2023-08-12T03:01:23.899Z,91.44
2023-08-12T03:03:53.674Z,92.54
2023-08-12T03:06:23.542Z,92.43
2023-08-12T03:08:50.832Z,92.63
2023-08-12T03:11:18.504Z,92.16
2023-08-12T03:13:45.848Z,92.89
2023-08-12T03:16:14.098Z,93.25
2023-08-12T03:18:42.122Z,93.29
2023-08-12T03:21:10.266Z,92.92
2023-08-12T03:23:39.686Z,94.04
2023-08-12T03:26:10.120Z,95.14
2023-08-12T03:28:37.810Z,95.78
2023-08-12T03:31:08.296Z,96.49
2023-08-12T03:33:37.985Z,96.60
2023-08-12T03:36:05.727Z,96.05
2023-08-12T03:38:35.534Z,96.87
2023-08-12T03:41:04.503Z,96.12
2023-08-12T03:43:31.900Z,96.53
2023-08-12T03:45:59.704Z,98.83
2023-08-12T03:48:27.019Z,98.58
2023-08-12T03:50:54.425Z,96.96
2023-08-12T03:53:21.815Z,97.67
2023-08-12T03:55:49.031Z,97.50
2023-08-12T03:58:17.973Z,97.81
2023-08-12T04:00:48.077Z,97.31
2023-08-12T04:03:15.554Z,96.77
2023-08-12T04:05:49.902Z,96.87
2023-08-12T04:08:17.547Z,97.55
2023-08-12T04:10:46.827Z,97.03
2023-08-12T04:13:14.121Z,96.64
2023-08-12T04:15:43.078Z,97.32
2023-08-12T04:18:10.296Z,99.76
2023-08-12T04:20:38.723Z,99.35
2023-08-12T04:23:06.273Z,98.20
2023-08-12T04:25:33.011Z,97.47
2023-08-12T04:28:00.281Z,97.32
2023-08-12T04:30:27.799Z,100.00
2023-08-12T04:32:56.680Z,100.00
2023-08-12T04:35:24.385Z,100.00
2023-08-12T04:37:51.781Z,100.00
2023-08-12T04:40:19.078Z,100.00
2023-08-12T04:42:46.442Z,100.00
2023-08-12T04:45:17.148Z,100.00
2023-08-12T04:47:44.511Z,99.71
2023-08-12T04:50:13.713Z,100.00
2023-08-12T04:52:40.974Z,100.00
2023-08-12T04:55:08.985Z,100.00
2023-08-12T04:57:39.606Z,100.00
2023-08-12T05:00:07.977Z,100.00
2023-08-12T05:02:35.750Z,100.00
2023-08-12T05:05:03.842Z,100.00
2023-08-12T05:07:34.964Z,100.00
2023-08-12T05:10:02.980Z,100.00
2023-08-12T05:12:30.314Z,100.00
2023-08-12T05:14:58.463Z,100.00
2023-08-12T05:17:26.403Z,100.00
2023-08-12T05:19:53.679Z,100.00
2023-08-12T05:22:20.903Z,100.00
2023-08-12T05:24:53.304Z,100.00
2023-08-12T05:27:20.645Z,100.00
2023-08-12T05:29:50.887Z,100.00
2023-08-12T05:32:18.316Z,100.00
2023-08-12T05:34:45.511Z,100.00
2023-08-12T05:37:12.964Z,100.00
2023-08-12T05:39:40.449Z,100.00
2023-08-12T05:42:09.446Z,100.00
2023-08-12T05:44:36.988Z,100.00
2023-08-12T05:47:04.302Z,100.00
2023-08-12T05:49:30.951Z,100.00
2023-08-12T05:51:58.459Z,100.00
2023-08-12T05:54:25.870Z,100.00
2023-08-12T05:56:53.201Z,100.00
2023-08-12T05:59:24.570Z,100.00
2023-08-12T06:01:51.916Z,100.00
2023-08-12T06:04:19.273Z,100.00
2023-08-12T06:06:46.633Z,100.00
2023-08-12T06:09:19.932Z,100.00
2023-08-12T06:11:47.490Z,100.00
2023-08-12T06:14:14.308Z,100.00
2023-08-12T06:16:42.457Z,100.00
2023-08-12T06:19:09.649Z,100.00
2023-08-12T06:21:36.662Z,100.00
2023-08-12T06:24:07.927Z,100.00
2023-08-12T06:26:35.716Z,100.00
2023-08-12T06:29:05.650Z,100.00
2023-08-12T06:31:33.430Z,100.00
2023-08-12T06:34:01.702Z,100.00
2023-08-12T06:36:29.109Z,100.00
2023-08-12T06:38:56.580Z,100.00
2023-08-12T06:41:24.299Z,100.00
2023-08-12T06:43:51.891Z,100.00
2023-08-12T06:46:18.753Z,100.00
2023-08-12T06:48:46.252Z,100.00
2023-08-12T06:51:15.084Z,100.00
2023-08-12T06:53:42.286Z,100.00
2023-08-12T06:56:10.184Z,100.00
2023-08-12T06:58:37.898Z,100.00
2023-08-12T07:01:05.266Z,100.00
2023-08-12T07:03:35.357Z,100.00
2023-08-12T07:06:02.657Z,100.00
2023-08-12T07:08:31.559Z,100.00
2023-08-12T07:10:58.379Z,100.00
2023-08-12T07:13:25.111Z,100.00
2023-08-12T07:15:52.086Z,100.00
2023-08-12T07:18:19.429Z,100.00
2023-08-12T07:20:46.884Z,100.00
2023-08-12T07:23:14.181Z,100.00
2023-08-12T07:25:42.331Z,100.00
2023-08-12T07:28:09.667Z,99.28
2023-08-12T07:30:37.540Z,99.38
2023-08-12T07:33:06.704Z,98.74
2023-08-12T07:35:34.018Z,98.69
2023-08-12T07:38:00.772Z,98.60
2023-08-12T07:40:28.141Z,99.33
2023-08-12T07:42:57.149Z,96.93
2023-08-12T07:45:23.992Z,93.81
2023-08-12T07:47:53.630Z,91.47
2023-08-12T07:50:21.283Z,88.70
2023-08-12T07:52:48.780Z,89.41
2023-08-12T07:55:16.538Z,89.31
2023-08-12T07:57:43.854Z,86.67
2023-08-12T08:00:13.640Z,86.42
2023-08-12T08:02:41.092Z,88.87
2023-08-12T08:05:09.098Z,90.48
2023-08-12T08:07:36.566Z,90.58
2023-08-12T08:10:07.893Z,88.73
2023-08-12T08:12:35.431Z,89.42
2023-08-12T08:15:02.668Z,91.29
2023-08-12T08:17:31.692Z,92.39
2023-08-12T08:19:59.005Z,92.23
2023-08-12T08:22:26.458Z,93.37
2023-08-12T08:24:53.959Z,93.04
2023-08-12T08:27:21.394Z,93.20
2023-08-12T08:29:48.861Z,94.14
2023-08-12T08:32:19.581Z,93.66
2023-08-12T08:34:47.790Z,93.16
2023-08-12T08:37:15.120Z,93.31
2023-08-12T08:39:42.743Z,92.43
2023-08-12T08:42:13.536Z,92.70
2023-08-12T08:44:43.549Z,92.87
2023-08-12T08:47:11.652Z,93.33
2023-08-12T08:49:39.676Z,92.80
2023-08-12T08:52:09.334Z,93.07
2023-08-12T08:54:37.215Z,92.96
2023-08-12T08:57:11.912Z,94.45
2023-08-12T08:59:45.992Z,95.65
2023-08-12T09:02:20.816Z,96.44
2023-08-12T09:04:49.221Z,95.75
2023-08-12T09:07:22.444Z,94.63
2023-08-12T09:09:53.851Z,93.69
2023-08-12T09:12:22.896Z,92.51
2023-08-12T09:14:50.425Z,90.53
2023-08-12T09:17:17.950Z,91.38
2023-08-12T09:19:45.258Z,91.17
2023-08-12T09:22:13.755Z,91.40
2023-08-12T09:24:46.044Z,92.68
2023-08-12T09:27:13.545Z,92.30
2023-08-12T09:29:41.080Z,89.42
2023-08-12T09:32:12.331Z,88.21
2023-08-12T09:34:39.336Z,88.68
2023-08-12T09:37:06.304Z,89.28
2023-08-12T09:39:33.552Z,89.36
2023-08-12T09:42:02.472Z,88.94
2023-08-12T09:44:29.852Z,89.78
2023-08-12T09:46:59.589Z,89.01
2023-08-12T09:49:26.499Z,89.14
2023-08-12T09:51:54.203Z,87.28
2023-08-12T09:54:21.987Z,88.44
2023-08-12T09:56:50.241Z,87.31
2023-08-12T09:59:21.295Z,89.70
2023-08-12T10:01:50.142Z,91.97
2023-08-12T10:04:18.778Z,94.13
2023-08-12T10:06:45.969Z,92.41
2023-08-12T10:09:13.395Z,90.93
2023-08-12T10:11:41.133Z,90.34
2023-08-12T10:14:10.330Z,89.44
2023-08-12T10:16:38.802Z,87.80
2023-08-12T10:19:07.229Z,87.60
2023-08-12T10:21:35.166Z,88.83
2023-08-12T10:24:04.376Z,92.99
2023-08-12T10:26:32.137Z,93.70
2023-08-12T10:29:00.802Z,95.61
2023-08-12T10:31:29.007Z,94.76
2023-08-12T10:33:58.906Z,92.68
2023-08-12T10:36:27.889Z,90.66
2023-08-12T10:38:57.324Z,88.13
2023-08-12T10:41:26.234Z,91.71
2023-08-12T10:43:55.035Z,90.07
2023-08-12T10:46:30.672Z,87.94
2023-08-12T10:49:03.557Z,88.19
2023-08-12T10:51:47.985Z,90.52
2023-08-12T10:54:19.719Z,93.27
2023-08-12T10:57:09.153Z,94.31
2023-08-12T10:59:58.846Z,92.31
2023-08-12T11:02:30.653Z,91.94
2023-08-12T11:05:02.159Z,93.03
2023-08-12T11:07:41.542Z,99.69
2023-08-12T11:10:13.017Z,99.39
2023-08-12T11:12:47.204Z,99.98
2023-08-12T11:15:14.468Z,98.41
2023-08-12T11:17:45.138Z,99.00
2023-08-12T11:20:15.279Z,97.98
2023-08-12T11:22:43.501Z,96.82
2023-08-12T11:25:13.219Z,96.12
2023-08-12T11:27:41.800Z,95.87
2023-08-12T11:30:10.180Z,95.27
2023-08-12T11:32:38.099Z,97.51
2023-08-12T11:35:06.461Z,100.00
2023-08-12T11:37:35.860Z,100.00
2023-08-12T11:40:03.691Z,100.00
2023-08-12T11:42:32.881Z,100.00
2023-08-12T11:45:00.162Z,100.00
2023-08-12T11:47:27.001Z,100.00
2023-08-12T11:49:54.454Z,100.00
2023-08-12T11:52:21.902Z,100.00
2023-08-12T11:54:51.684Z,100.00
2023-08-12T11:57:19.734Z,100.00
2023-08-12T11:59:47.283Z,100.00
2023-08-12T12:02:14.416Z,100.00
2023-08-12T12:04:42.807Z,100.00
2023-08-12T12:07:19.674Z,100.00
2023-08-12T12:09:53.504Z,100.00
2023-08-12T12:12:23.974Z,100.00
2023-08-12T12:14:52.674Z,100.00
2023-08-12T12:17:23.111Z,100.00
2023-08-12T12:19:54.095Z,100.00
2023-08-12T12:22:21.635Z,100.00
2023-08-12T12:24:49.106Z,100.00
2023-08-12T12:27:17.545Z,100.00
2023-08-12T12:29:44.388Z,100.00
2023-08-12T12:32:12.642Z,100.00
2023-08-12T12:34:39.595Z,100.00
2023-08-12T12:37:06.774Z,100.00
2023-08-12T12:39:34.161Z,100.00
2023-08-12T12:42:01.371Z,100.00
2023-08-12T12:44:29.469Z,100.00
2023-08-12T12:46:56.958Z,100.00
2023-08-12T12:49:24.523Z,100.00
2023-08-12T12:51:51.393Z,100.00
2023-08-12T12:54:18.635Z,100.00
2023-08-12T12:56:45.460Z,99.92
2023-08-12T12:59:13.270Z,99.78
2023-08-12T13:01:41.566Z,100.00
2023-08-12T13:04:09.026Z,98.40
2023-08-12T13:06:36.364Z,99.81
2023-08-12T13:09:03.630Z,99.10
2023-08-12T13:11:30.417Z,98.41
2023-08-12T13:13:57.169Z,97.91
2023-08-12T13:16:24.006Z,97.04
2023-08-12T13:18:52.268Z,95.78
2023-08-12T13:21:19.538Z,95.31
2023-08-12T13:23:46.522Z,96.41
2023-08-12T13:26:13.310Z,97.03
2023-08-12T13:28:40.111Z,97.67
2023-08-12T13:31:08.104Z,98.25
2023-08-12T13:33:34.982Z,99.98
2023-08-12T13:36:03.414Z,100.00
2023-08-12T13:38:30.359Z,100.00
2023-08-12T13:40:57.069Z,100.00
2023-08-12T13:43:24.525Z,100.00
2023-08-12T13:45:52.034Z,100.00
2023-08-12T13:48:19.520Z,100.00
2023-08-12T13:50:46.394Z,100.00
2023-08-12T13:53:15.263Z,99.87
2023-08-12T13:55:41.984Z,96.84
2023-08-12T13:58:09.128Z,93.77
2023-08-12T14:00:36.327Z,94.35
2023-08-12T14:03:03.164Z,95.55
2023-08-12T14:05:31.824Z,96.47
2023-08-12T14:07:58.555Z,97.77
2023-08-12T14:10:27.354Z,98.05
2023-08-12T14:12:54.608Z,99.30
2023-08-12T14:15:21.604Z,99.71
2023-08-12T14:17:48.413Z,99.17
2023-08-12T14:20:15.461Z,98.96
2023-08-12T14:22:42.284Z,100.00
2023-08-12T14:25:09.807Z,100.00
2023-08-12T14:27:38.224Z,100.00
2023-08-12T14:30:06.870Z,100.00
2023-08-12T14:32:33.760Z,100.00
2023-08-12T14:35:01.153Z,99.85
2023-08-12T14:37:28.160Z,98.99
2023-08-12T14:39:55.563Z,100.00
2023-08-12T14:42:22.266Z,100.00
2023-08-12T14:44:50.481Z,98.38
2023-08-12T14:47:17.211Z,97.59
2023-08-12T14:49:43.842Z,96.53
2023-08-12T14:52:19.177Z,97.01
2023-08-12T14:54:45.925Z,96.29
2023-08-12T14:57:13.136Z,98.63
2023-08-12T14:59:40.173Z,97.08
2023-08-12T15:02:08.661Z,95.26
2023-08-12T15:04:35.471Z,94.01
2023-08-12T15:07:03.096Z,95.56
2023-08-12T15:09:30.056Z,95.81
2023-08-12T15:11:56.787Z,99.47
2023-08-12T15:14:23.561Z,100.00
2023-08-12T15:16:50.325Z,100.00
2023-08-12T15:19:18.503Z,100.00
2023-08-12T15:21:45.277Z,100.00
2023-08-12T15:24:12.149Z,100.00
2023-08-12T15:26:38.932Z,100.00
2023-08-12T15:29:05.818Z,100.00
2023-08-12T15:31:32.496Z,100.00
2023-08-12T15:33:59.525Z,100.00
2023-08-12T15:36:27.656Z,100.00
2023-08-12T15:38:54.388Z,100.00
2023-08-12T15:41:21.117Z,100.00
2023-08-12T15:43:47.866Z,100.00
2023-08-12T15:46:14.591Z,100.00
2023-08-12T15:48:41.492Z,100.00
2023-08-12T15:51:08.168Z,100.00
2023-08-12T15:53:36.282Z,100.00
2023-08-12T15:56:03.178Z,100.00
2023-08-12T15:58:29.905Z,100.00
2023-08-12T16:00:56.647Z,100.00
2023-08-12T16:03:23.490Z,100.00
2023-08-12T16:05:50.265Z,100.00
2023-08-12T16:08:17.401Z,100.00
2023-08-12T16:10:45.468Z,100.00
2023-08-12T16:13:12.169Z,100.00
2023-08-12T16:15:39.035Z,100.00
2023-08-12T16:18:06.110Z,97.65
2023-08-12T16:20:32.963Z,96.26
2023-08-12T16:22:59.813Z,91.57
2023-08-12T16:25:27.383Z,86.32
2023-08-12T16:27:56.264Z,81.74
2023-08-12T16:30:24.257Z,81.94
2023-08-12T16:32:52.004Z,80.76
2023-08-12T16:35:19.030Z,82.07
2023-08-12T16:37:45.872Z,76.01
2023-08-12T16:40:13.015Z,79.42
2023-08-12T16:42:40.589Z,77.58
2023-08-12T16:45:10.092Z,72.48
2023-08-12T16:47:37.482Z,71.51
2023-08-12T16:50:05.602Z,74.52
2023-08-12T16:52:32.456Z,75.25
2023-08-12T16:54:59.781Z,73.77
2023-08-12T16:57:26.810Z,71.13
2023-08-12T16:59:54.767Z,74.87
2023-08-12T17:02:23.101Z,73.88
2023-08-12T17:04:49.922Z,71.33
2023-08-12T17:07:17.102Z,74.12
2023-08-12T17:09:47.197Z,74.38
2023-08-12T17:12:15.606Z,73.80
2023-08-12T17:14:43.268Z,72.07
2023-08-12T17:17:13.292Z,70.18
2023-08-12T17:19:41.558Z,69.98
2023-08-12T17:22:09.072Z,71.17
2023-08-12T17:24:37.554Z,72.20
2023-08-12T17:27:04.822Z,74.49
2023-08-12T17:29:32.085Z,72.47
2023-08-12T17:32:00.081Z,73.96
2023-08-12T17:34:27.504Z,73.31
2023-08-12T17:36:56.779Z,72.21
2023-08-12T17:39:24.093Z,69.83
2023-08-12T17:41:51.498Z,72.07
2023-08-12T17:44:18.958Z,72.94
2023-08-12T17:46:45.830Z,72.68
2023-08-12T17:49:25.285Z,71.01
2023-08-12T17:58:27.293Z,71.34
2023-08-12T18:00:54.707Z,69.63
2023-08-12T18:03:22.568Z,68.57
2023-08-12T18:05:50.261Z,67.97
2023-08-12T18:08:17.895Z,68.57
2023-08-12T18:10:45.371Z,69.00
2023-08-12T18:13:13.171Z,70.31
2023-08-12T18:15:42.019Z,70.42
2023-08-12T18:18:08.825Z,70.50
2023-08-12T18:20:36.316Z,72.23
2023-08-12T18:23:04.174Z,70.23
2023-08-12T18:25:31.865Z,71.03
2023-08-12T18:27:59.258Z,71.64
2023-08-12T18:30:27.040Z,72.05
2023-08-12T18:32:56.109Z,72.02
2023-08-12T18:35:23.861Z,71.51
2023-08-12T18:37:51.419Z,71.56
2023-08-12T18:40:18.897Z,72.66
2023-08-12T18:42:46.265Z,72.73
2023-08-12T18:45:13.957Z,74.73
2023-08-12T18:47:41.631Z,76.12
2023-08-12T18:50:10.471Z,75.01
2023-08-12T18:52:41.273Z,74.30
2023-08-12T18:55:09.223Z,75.10
2023-08-12T18:57:36.688Z,74.30
2023-08-12T19:00:04.943Z,75.88
2023-08-12T19:02:32.210Z,75.13
2023-08-12T19:05:00.184Z,74.55
2023-08-12T19:07:29.028Z,75.10
2023-08-12T19:09:56.578Z,73.69
2023-08-12T19:12:24.178Z,74.43
2023-08-12T19:14:51.504Z,75.99
2023-08-12T19:17:20.399Z,76.12
2023-08-12T19:19:49.821Z,76.02
2023-08-12T19:22:17.467Z,75.91
2023-08-12T19:24:47.142Z,74.98
2023-08-12T19:27:15.243Z,77.06
2023-08-12T19:29:42.692Z,77.26
2023-08-12T19:32:10.006Z,79.97
2023-08-12T19:34:37.792Z,78.50
2023-08-12T19:37:05.421Z,78.46
2023-08-12T19:39:33.161Z,77.55
2023-08-12T19:42:02.374Z,79.88
2023-08-12T19:44:29.131Z,80.78
2023-08-12T19:46:56.973Z,81.02
2023-08-12T19:49:24.268Z,82.49
2023-08-12T19:51:54.375Z,84.67
2023-08-12T19:54:21.168Z,87.26
2023-08-12T19:56:48.775Z,90.69
2023-08-12T19:59:17.544Z,88.35
2023-08-12T20:01:45.051Z,89.52
2023-08-12T20:04:12.662Z,93.28
2023-08-12T20:06:39.950Z,89.77
2023-08-12T20:09:07.286Z,92.25
2023-08-12T20:11:34.712Z,91.99
2023-08-12T20:14:02.445Z,90.62
2023-08-12T20:16:31.830Z,93.33
2023-08-12T20:19:01.380Z,93.72
2023-08-12T20:21:32.245Z,91.87
2023-08-12T20:23:59.025Z,93.97
2023-08-12T20:26:27.125Z,91.90
2023-08-12T20:28:53.884Z,92.15
2023-08-12T20:31:22.925Z,93.48
2023-08-12T20:33:52.350Z,92.65
2023-08-12T20:36:20.838Z,94.12
2023-08-12T20:38:48.439Z,94.41
2023-08-12T20:41:16.210Z,93.17
2023-08-12T20:43:42.945Z,93.34
2023-08-12T20:46:10.509Z,92.69
2023-08-12T20:48:38.101Z,93.19
2023-08-12T20:51:06.723Z,95.05
2023-08-12T20:53:34.141Z,93.56
2023-08-12T20:56:00.863Z,93.21
2023-08-12T20:58:28.179Z,94.06
2023-08-12T21:00:56.039Z,94.22
2023-08-12T21:03:24.260Z,93.51
2023-08-12T21:05:52.214Z,93.64
2023-08-12T21:08:21.835Z,94.87
2023-08-12T21:10:52.410Z,94.01
2023-08-12T21:13:20.135Z,95.49
2023-08-12T21:15:48.660Z,96.96
2023-08-12T21:18:16.312Z,96.55
2023-08-12T21:20:43.017Z,95.90
2023-08-12T21:23:10.296Z,96.65
2023-08-12T21:25:38.716Z,96.42
2023-08-12T21:28:07.407Z,95.88
2023-08-12T21:30:34.787Z,96.44
2023-08-12T21:33:01.573Z,98.91
2023-08-12T21:35:29.273Z,97.00
2023-08-12T21:37:57.589Z,98.80
2023-08-12T21:40:24.548Z,98.85
2023-08-12T21:42:52.648Z,98.00
2023-08-12T21:45:20.473Z,97.12
2023-08-12T21:47:47.771Z,97.56
2023-08-12T21:50:14.766Z,96.71
2023-08-12T21:52:42.283Z,98.12
2023-08-12T21:55:10.492Z,97.79
2023-08-12T21:57:37.998Z,100.00
2023-08-12T22:00:09.098Z,98.50
2023-08-12T22:02:36.874Z,99.96
2023-08-12T22:05:04.418Z,98.14
2023-08-12T22:07:31.850Z,100.00
2023-08-12T22:09:59.503Z,100.00
2023-08-12T22:12:27.259Z,100.00
2023-08-12T22:14:54.656Z,99.25
2023-08-12T22:17:24.223Z,98.00
2023-08-12T22:19:51.479Z,97.65
2023-08-12T22:22:20.347Z,98.46
2023-08-12T22:24:48.409Z,99.95
2023-08-12T22:27:16.424Z,99.88
2023-08-12T22:29:45.168Z,100.00
2023-08-12T22:32:13.003Z,100.00
2023-08-12T22:34:42.072Z,99.52
2023-08-12T22:37:10.917Z,100.00
2023-08-12T22:39:38.976Z,99.69
2023-08-12T22:42:07.359Z,100.00
2023-08-12T22:44:35.256Z,100.00
2023-08-12T22:47:04.766Z,100.00
2023-08-12T22:49:32.207Z,100.00
2023-08-12T22:52:01.251Z,100.00
2023-08-12T22:54:28.076Z,100.00
2023-08-12T22:56:54.874Z,100.00
2023-08-12T22:59:22.311Z,100.00
2023-08-12T23:01:49.589Z,100.00
2023-08-12T23:04:16.449Z,100.00
2023-08-12T23:06:44.264Z,100.00
2023-08-12T23:09:14.300Z,100.00
2023-08-12T23:11:41.111Z,100.00
2023-08-12T23:14:07.925Z,100.00
2023-08-12T23:16:35.273Z,100.00
2023-08-12T23:19:02.681Z,100.00
2023-08-12T23:21:32.088Z,100.00
2023-08-12T23:23:58.813Z,100.00
2023-08-12T23:26:26.985Z,100.00
2023-08-12T23:28:53.664Z,100.00
2023-08-12T23:31:20.428Z,100.00
2023-08-12T23:33:47.549Z,100.00
2023-08-12T23:36:14.282Z,100.00
2023-08-12T23:38:41.011Z,100.00
2023-08-12T23:41:08.006Z,100.00
2023-08-12T23:43:36.093Z,100.00
2023-08-12T23:46:03.062Z,100.00
2023-08-12T23:48:31.713Z,98.49
2023-08-12T23:50:58.490Z,100.00
2023-08-12T23:53:25.530Z,100.00
2023-08-12T23:55:52.583Z,100.00
2023-08-12T23:58:19.304Z,100.00
